createdAt,value
2023-04-29T04:00:35.410Z,10.92
2023-04-29T04:01:36.411Z,10.88
2023-04-29T04:02:36.570Z,10.88
2023-04-29T04:03:36.586Z,10.94
2023-04-29T04:04:36.481Z,10.91
2023-04-29T04:05:36.328Z,10.91
2023-04-29T04:06:36.310Z,10.95
2023-04-29T04:07:36.300Z,10.92
2023-04-29T04:08:36.294Z,10.96
2023-04-29T04:09:36.277Z,10.94
2023-04-29T04:10:36.266Z,10.92
2023-04-29T04:11:36.259Z,10.92
2023-04-29T04:12:36.245Z,10.99
2023-04-29T04:13:36.237Z,10.95
2023-04-29T04:14:36.237Z,10.96
2023-04-29T04:15:36.209Z,10.98
2023-04-29T04:16:36.269Z,10.99
2023-04-29T04:17:36.229Z,11.03
2023-04-29T04:18:36.186Z,10.99
2023-04-29T04:19:36.187Z,11.01
2023-04-29T04:20:36.153Z,11.10
2023-04-29T04:21:36.145Z,11.11
2023-04-29T04:22:36.145Z,11.07
2023-04-29T04:23:36.134Z,11.07
2023-04-29T04:24:36.118Z,11.07
2023-04-29T04:25:36.093Z,11.07
2023-04-29T04:26:36.095Z,11.11
2023-04-29T04:27:36.088Z,11.09
2023-04-29T04:28:36.080Z,11.13
2023-04-29T04:29:36.065Z,11.11
2023-04-29T04:30:36.056Z,11.09
2023-04-29T04:31:36.072Z,11.10
2023-04-29T04:32:36.035Z,11.13
2023-04-29T04:33:36.036Z,11.13
2023-04-29T04:34:36.013Z,11.11
2023-04-29T04:35:36.005Z,11.13
2023-04-29T04:36:35.989Z,11.07
2023-04-29T04:37:35.967Z,11.07
2023-04-29T04:38:35.960Z,11.09
2023-04-29T04:39:35.956Z,11.13
2023-04-29T04:40:35.932Z,11.13
2023-04-29T04:41:35.932Z,11.11
2023-04-29T04:42:35.924Z,11.14
2023-04-29T04:43:35.902Z,11.11
2023-04-29T04:44:35.900Z,11.14
2023-04-29T04:45:35.915Z,11.11
2023-04-29T04:46:35.868Z,11.11
2023-04-29T04:47:35.885Z,11.13
2023-04-29T04:48:35.891Z,11.16
2023-04-29T04:49:35.835Z,11.13
2023-04-29T04:50:35.825Z,11.11
2023-04-29T04:51:35.814Z,11.09
2023-04-29T04:52:35.814Z,11.10
2023-04-29T04:53:35.797Z,11.14
2023-04-29T04:54:35.806Z,11.14
2023-04-29T04:55:35.765Z,11.10
2023-04-29T04:56:35.768Z,11.13
2023-04-29T04:57:35.747Z,11.11
2023-04-29T04:58:35.872Z,11.11
2023-04-29T04:59:35.734Z,11.13
2023-04-29T05:00:35.717Z,11.14
2023-04-29T05:01:35.766Z,11.14
2023-04-29T05:02:35.795Z,11.14
2023-04-29T05:03:35.880Z,11.11
2023-04-29T05:04:35.701Z,11.17
2023-04-29T05:05:35.649Z,11.14
2023-04-29T05:06:35.647Z,11.14
2023-04-29T05:07:35.646Z,11.14
2023-04-29T05:08:35.633Z,11.16
2023-04-29T05:09:35.624Z,11.16
2023-04-29T05:10:35.627Z,11.20
2023-04-29T05:11:35.611Z,11.19
2023-04-29T05:12:35.586Z,11.20
2023-04-29T05:13:35.566Z,11.17
2023-04-29T05:14:35.563Z,11.20
2023-04-29T05:15:35.572Z,11.20
2023-04-29T05:16:35.630Z,11.20
2023-04-29T05:17:35.577Z,11.20
2023-04-29T05:18:35.509Z,11.19
2023-04-29T05:19:35.523Z,11.19
2023-04-29T05:20:35.511Z,11.21
2023-04-29T05:21:35.498Z,11.21
2023-04-29T05:22:35.484Z,11.27
2023-04-29T05:23:35.454Z,11.27
2023-04-29T05:24:35.464Z,11.27
2023-04-29T05:25:35.429Z,11.25
2023-04-29T05:26:35.423Z,11.27
2023-04-29T05:27:35.426Z,11.29
2023-04-29T05:28:35.410Z,11.28
2023-04-29T05:29:35.399Z,11.32
2023-04-29T05:30:35.413Z,11.36
2023-04-29T05:31:35.380Z,11.38
2023-04-29T05:32:35.402Z,11.36
2023-04-29T05:33:35.363Z,11.39
2023-04-29T05:34:35.369Z,11.36
2023-04-29T05:35:35.323Z,11.39
2023-04-29T05:36:35.330Z,11.38
2023-04-29T05:37:35.309Z,11.44
2023-04-29T05:38:35.293Z,11.43
2023-04-29T05:39:35.306Z,11.41
2023-04-29T05:40:35.278Z,11.41
2023-04-29T05:41:35.258Z,11.41
2023-04-29T05:42:35.254Z,11.43
2023-04-29T05:43:36.802Z,11.47
2023-04-29T05:44:35.261Z,11.47
2023-04-29T05:45:35.204Z,11.47
2023-04-29T05:46:35.256Z,11.44
2023-04-29T05:47:35.218Z,11.47
2023-04-29T05:48:35.202Z,11.49
2023-04-29T05:49:35.563Z,11.44
2023-04-29T05:50:35.198Z,11.49
2023-04-29T05:51:35.143Z,11.50
2023-04-29T05:52:35.159Z,11.47
2023-04-29T05:53:35.179Z,11.52
2023-04-29T05:54:35.131Z,11.53
2023-04-29T05:55:35.110Z,11.49
2023-04-29T05:56:35.112Z,11.50
2023-04-29T05:57:35.080Z,11.52
2023-04-29T05:58:35.098Z,11.52
2023-04-29T05:59:35.063Z,11.52
2023-04-29T06:00:35.072Z,11.52
2023-04-29T06:01:35.044Z,11.53
2023-04-29T06:02:39.436Z,11.54
2023-04-29T06:03:35.265Z,11.53
2023-04-29T06:04:35.243Z,11.56
2023-04-29T06:05:35.539Z,11.56
2023-04-29T06:06:35.046Z,11.62
2023-04-29T06:07:35.034Z,11.61
2023-04-29T06:08:34.985Z,11.62
2023-04-29T06:09:34.952Z,11.59
2023-04-29T06:10:35.049Z,11.64
2023-04-29T06:11:34.925Z,11.61
2023-04-29T06:12:34.928Z,11.59
2023-04-29T06:13:34.923Z,11.62
2023-04-29T06:14:34.920Z,11.61
2023-04-29T06:15:34.933Z,11.61
2023-04-29T06:16:34.964Z,11.65
2023-04-29T06:17:34.885Z,11.64
2023-04-29T06:18:34.883Z,11.67
2023-04-29T06:19:34.844Z,11.68
2023-04-29T06:20:36.856Z,11.70
2023-04-29T06:21:34.833Z,11.65
2023-04-29T06:22:34.826Z,11.68
2023-04-29T06:23:34.790Z,11.70
2023-04-29T06:24:34.785Z,11.70
2023-04-29T06:25:34.809Z,11.74
2023-04-29T06:26:34.789Z,11.67
2023-04-29T06:27:34.756Z,11.68
2023-04-29T06:28:34.766Z,11.70
2023-04-29T06:29:34.729Z,11.74
2023-04-29T06:30:34.744Z,11.74
2023-04-29T06:31:34.742Z,11.77
2023-04-29T06:32:34.727Z,11.75
2023-04-29T06:33:34.687Z,11.75
2023-04-29T06:34:34.698Z,11.77
2023-04-29T06:35:34.673Z,11.77
2023-04-29T06:36:34.684Z,11.77
2023-04-29T06:37:36.443Z,11.82
2023-04-29T06:38:34.633Z,11.80
2023-04-29T06:39:34.637Z,11.78
2023-04-29T06:40:34.648Z,11.85
2023-04-29T06:41:34.599Z,11.80
2023-04-29T06:42:34.608Z,11.85
2023-04-29T06:43:34.571Z,11.83
2023-04-29T06:44:34.566Z,11.80
2023-04-29T06:45:34.571Z,11.80
2023-04-29T06:46:34.671Z,11.87
2023-04-29T06:47:34.591Z,11.86
2023-04-29T06:48:34.523Z,11.89
2023-04-29T06:49:34.507Z,11.89
2023-04-29T06:50:34.496Z,11.89
2023-04-29T06:51:34.523Z,11.94
2023-04-29T06:52:34.485Z,11.90
2023-04-29T06:53:34.467Z,11.93
2023-04-29T06:54:34.462Z,11.90
2023-04-29T06:55:34.436Z,11.90
2023-04-29T06:56:34.478Z,11.90
2023-04-29T06:57:34.453Z,11.90
2023-04-29T06:58:34.450Z,11.90
2023-04-29T06:59:34.410Z,11.93
2023-04-29T07:00:34.408Z,11.97
2023-04-29T07:01:34.413Z,11.89
2023-04-29T07:02:34.423Z,11.90
2023-04-29T07:03:34.402Z,11.89
2023-04-29T07:04:34.409Z,11.89
2023-04-29T07:05:34.362Z,11.89
2023-04-29T07:06:34.340Z,11.90
2023-04-29T07:07:34.327Z,11.93
2023-04-29T07:08:34.303Z,11.94
2023-04-29T07:09:34.303Z,12.05
2023-04-29T07:10:34.290Z,12.04
2023-04-29T07:11:34.270Z,12.05
2023-04-29T07:12:34.280Z,12.13
2023-04-29T07:13:34.314Z,12.13
2023-04-29T07:14:34.248Z,12.13
2023-04-29T07:15:34.221Z,12.09
2023-04-29T07:16:34.255Z,12.09
2023-04-29T07:17:34.306Z,12.11
2023-04-29T07:18:34.192Z,12.08
2023-04-29T07:19:34.210Z,12.04
2023-04-29T07:20:34.181Z,12.02
2023-04-29T07:21:34.189Z,12.02
2023-04-29T07:22:34.169Z,11.96
2023-04-29T07:23:34.148Z,11.90
2023-04-29T07:24:34.129Z,11.90
2023-04-29T07:25:34.159Z,11.78
2023-04-29T07:26:34.179Z,11.83
2023-04-29T07:27:34.102Z,11.89
2023-04-29T07:28:34.076Z,11.86
2023-04-29T07:29:34.091Z,11.83
2023-04-29T07:30:34.156Z,11.72
2023-04-29T07:31:35.941Z,11.61
2023-04-29T07:32:34.086Z,11.61
2023-04-29T07:33:34.035Z,11.59
2023-04-29T07:34:34.016Z,11.47
2023-04-29T07:35:34.027Z,11.52
2023-04-29T07:36:34.013Z,11.46
2023-04-29T07:37:33.999Z,11.47
2023-04-29T07:38:33.982Z,11.49
2023-04-29T07:39:33.972Z,11.54
2023-04-29T07:40:33.956Z,11.61
2023-04-29T07:41:33.936Z,11.59
2023-04-29T07:42:33.947Z,11.64
2023-04-29T07:43:33.930Z,11.61
2023-04-29T07:44:33.898Z,11.57
2023-04-29T07:45:33.908Z,11.61
2023-04-29T07:46:33.910Z,11.59
2023-04-29T07:47:33.909Z,11.62
2023-04-29T07:48:33.885Z,11.56
2023-04-29T07:49:33.874Z,11.61
2023-04-29T07:50:33.836Z,11.62
2023-04-29T07:51:33.824Z,11.68
2023-04-29T07:52:33.849Z,11.62
2023-04-29T07:53:33.836Z,11.68
2023-04-29T07:54:33.792Z,11.65
2023-04-29T07:55:33.802Z,11.68
2023-04-29T07:56:33.782Z,11.72
2023-04-29T07:57:33.779Z,11.65
2023-04-29T07:58:33.751Z,11.64
2023-04-29T07:59:33.753Z,11.64
2023-04-29T08:00:33.751Z,11.67
2023-04-29T08:01:33.744Z,11.59
2023-04-29T08:02:33.801Z,11.47
2023-04-29T08:03:33.908Z,11.39
2023-04-29T08:04:34.008Z,11.34
2023-04-29T08:05:34.175Z,11.27
2023-04-29T08:06:33.680Z,11.31
2023-04-29T08:07:33.653Z,11.32
2023-04-29T08:08:33.657Z,11.32
2023-04-29T08:09:33.637Z,11.38
2023-04-29T08:10:33.604Z,11.43
2023-04-29T08:11:33.624Z,11.36
2023-04-29T08:12:33.617Z,11.43
2023-04-29T08:13:33.583Z,11.36
2023-04-29T08:14:33.586Z,11.38
2023-04-29T08:15:33.585Z,11.39
2023-04-29T08:16:33.582Z,11.43
2023-04-29T08:17:33.581Z,11.36
2023-04-29T08:18:33.523Z,11.41
2023-04-29T08:19:33.530Z,11.44
2023-04-29T08:20:33.743Z,11.43
2023-04-29T08:21:33.490Z,11.53
2023-04-29T08:22:33.490Z,11.50
2023-04-29T08:23:33.479Z,11.54
2023-04-29T08:24:33.473Z,11.52
2023-04-29T08:25:33.468Z,11.52
2023-04-29T08:26:33.428Z,11.54
2023-04-29T08:27:33.457Z,11.57
2023-04-29T08:28:33.419Z,11.52
2023-04-29T08:29:33.410Z,11.52
2023-04-29T08:30:33.410Z,11.57
2023-04-29T08:31:33.447Z,11.44
2023-04-29T08:32:33.408Z,11.41
2023-04-29T08:33:33.386Z,11.41
2023-04-29T08:34:33.359Z,11.36
2023-04-29T08:35:33.342Z,11.39
2023-04-29T08:36:33.479Z,11.35
2023-04-29T08:37:33.329Z,11.32
2023-04-29T08:38:33.310Z,11.36
2023-04-29T08:39:33.306Z,11.36
2023-04-29T08:40:33.280Z,11.29
2023-04-29T08:41:33.292Z,11.29
2023-04-29T08:42:33.290Z,11.32
2023-04-29T08:43:33.246Z,11.29
2023-04-29T08:44:33.248Z,11.32
2023-04-29T08:45:33.248Z,11.31
2023-04-29T08:46:33.224Z,11.31
2023-04-29T08:47:33.571Z,11.27
2023-04-29T08:48:33.312Z,11.28
2023-04-29T08:49:33.205Z,11.27
2023-04-29T08:50:33.160Z,11.28
2023-04-29T08:51:33.185Z,11.31
2023-04-29T08:52:33.190Z,11.28
2023-04-29T08:53:33.144Z,11.29
2023-04-29T08:54:33.144Z,11.29
2023-04-29T08:55:33.121Z,11.35
2023-04-29T08:56:33.102Z,11.35
2023-04-29T08:57:33.528Z,11.41
2023-04-29T08:58:33.076Z,11.38
2023-04-29T08:59:33.066Z,11.35
2023-04-29T09:00:33.114Z,11.43
2023-04-29T09:01:33.154Z,11.41
2023-04-29T09:02:33.137Z,11.36
2023-04-29T09:03:33.188Z,11.35
2023-04-29T09:04:33.047Z,11.38
2023-04-29T09:05:33.025Z,11.35
2023-04-29T09:06:33.005Z,11.32
2023-04-29T09:07:33.660Z,11.35
2023-04-29T09:08:32.974Z,11.36
2023-04-29T09:09:32.977Z,11.39
2023-04-29T09:10:32.975Z,11.39
2023-04-29T09:11:32.955Z,11.36
2023-04-29T09:12:32.943Z,11.38
2023-04-29T09:13:32.921Z,11.39
2023-04-29T09:14:32.925Z,11.41
2023-04-29T09:15:32.938Z,11.43
2023-04-29T09:16:32.946Z,11.44
2023-04-29T09:17:32.941Z,11.43
2023-04-29T09:18:32.891Z,11.49
2023-04-29T09:19:32.855Z,11.47
2023-04-29T09:20:32.847Z,11.47
2023-04-29T09:21:32.823Z,11.46
2023-04-29T09:22:32.824Z,11.39
2023-04-29T09:23:32.827Z,11.43
2023-04-29T09:24:32.805Z,11.43
2023-04-29T09:25:32.802Z,11.32
2023-04-29T09:26:32.800Z,11.36
2023-04-29T09:27:32.785Z,11.38
2023-04-29T09:28:32.760Z,11.29
2023-04-29T09:29:32.741Z,11.35
2023-04-29T09:30:32.735Z,11.39
2023-04-29T09:31:32.808Z,11.36
2023-04-29T09:32:32.734Z,11.34
2023-04-29T09:33:32.716Z,11.36
2023-04-29T09:34:32.699Z,11.43
2023-04-29T09:35:32.692Z,11.43
2023-04-29T09:36:32.669Z,11.43
2023-04-29T09:37:32.651Z,11.50
2023-04-29T09:38:32.678Z,11.50
2023-04-29T09:39:32.661Z,11.56
2023-04-29T09:40:36.498Z,11.54
2023-04-29T09:41:32.621Z,11.59
2023-04-29T09:42:32.589Z,11.53
2023-04-29T09:43:32.615Z,11.57
2023-04-29T09:44:34.436Z,11.59
2023-04-29T09:45:32.573Z,11.59
2023-04-29T09:46:32.695Z,11.56
2023-04-29T09:47:32.561Z,11.59
2023-04-29T09:48:32.541Z,11.61
2023-04-29T09:49:32.525Z,11.59
2023-04-29T09:50:32.537Z,11.57
2023-04-29T09:51:32.501Z,11.54
2023-04-29T09:52:32.495Z,11.53
2023-04-29T09:53:32.600Z,11.46
2023-04-29T09:54:32.459Z,11.44
2023-04-29T09:55:32.463Z,11.41
2023-04-29T09:56:32.464Z,11.43
2023-04-29T09:57:32.445Z,11.43
2023-04-29T09:58:32.431Z,11.41
2023-04-29T09:59:32.434Z,11.41
2023-04-29T10:00:32.394Z,11.41
2023-04-29T10:01:32.406Z,11.41
2023-04-29T10:02:32.415Z,11.43
2023-04-29T10:03:32.462Z,11.43
2023-04-29T10:04:32.444Z,11.47
2023-04-29T10:05:32.380Z,11.41
2023-04-29T10:06:32.336Z,11.38
2023-04-29T10:07:32.350Z,11.43
2023-04-29T10:08:32.321Z,11.43
2023-04-29T10:09:32.344Z,11.38
2023-04-29T10:10:32.312Z,11.35
2023-04-29T10:11:32.277Z,11.34
2023-04-29T10:12:32.274Z,11.34
2023-04-29T10:13:32.284Z,11.28
2023-04-29T10:14:32.281Z,11.25
2023-04-29T10:15:32.245Z,11.28
2023-04-29T10:16:32.278Z,11.29
2023-04-29T10:17:32.214Z,11.31
2023-04-29T10:18:32.226Z,11.29
2023-04-29T10:19:32.221Z,11.29
2023-04-29T10:20:32.181Z,11.31
2023-04-29T10:21:32.231Z,11.36
2023-04-29T10:22:32.158Z,11.41
2023-04-29T10:23:32.142Z,11.44
2023-04-29T10:24:32.527Z,11.50
2023-04-29T10:25:32.153Z,11.57
2023-04-29T10:26:32.356Z,11.57
2023-04-29T10:27:32.114Z,11.57
2023-04-29T10:28:32.100Z,11.57
2023-04-29T10:29:32.126Z,11.59
2023-04-29T10:30:32.080Z,11.61
2023-04-29T10:31:32.111Z,11.57
2023-04-29T10:32:39.978Z,11.54
2023-04-29T10:33:32.112Z,11.54
2023-04-29T10:34:32.027Z,11.54
2023-04-29T10:35:32.035Z,11.59
2023-04-29T10:36:32.028Z,11.61
2023-04-29T10:37:31.998Z,11.57
2023-04-29T10:38:31.998Z,11.62
2023-04-29T10:39:31.989Z,11.57
2023-04-29T10:40:31.952Z,11.59
2023-04-29T10:41:31.947Z,11.56
2023-04-29T10:42:31.951Z,11.53
2023-04-29T10:43:31.930Z,11.50
2023-04-29T10:44:31.936Z,11.52
2023-04-29T10:45:31.966Z,11.54
2023-04-29T10:46:31.902Z,11.56
2023-04-29T10:47:31.904Z,11.54
2023-04-29T10:48:31.862Z,11.59
2023-04-29T10:49:31.872Z,11.64
2023-04-29T10:50:31.860Z,11.64
2023-04-29T10:51:31.829Z,11.67
2023-04-29T10:52:31.828Z,11.61
2023-04-29T10:53:31.826Z,11.57
2023-04-29T10:54:31.829Z,11.61
2023-04-29T10:55:31.799Z,11.56
2023-04-29T10:56:31.793Z,11.61
2023-04-29T10:57:31.764Z,11.56
2023-04-29T10:58:31.755Z,11.61
2023-04-29T10:59:31.776Z,11.62
2023-04-29T11:00:31.736Z,11.61
2023-04-29T11:01:31.817Z,11.54
2023-04-29T11:02:31.794Z,11.62
2023-04-29T11:03:31.750Z,11.61
2023-04-29T11:04:31.802Z,11.56
2023-04-29T11:05:31.723Z,11.62
2023-04-29T11:06:31.679Z,11.61
2023-04-29T11:07:31.667Z,11.62
2023-04-29T11:08:31.705Z,11.70
2023-04-29T11:09:31.673Z,11.68
2023-04-29T11:10:31.627Z,11.72
2023-04-29T11:11:31.626Z,11.71
2023-04-29T11:12:31.635Z,11.70
2023-04-29T11:13:31.627Z,11.71
2023-04-29T11:14:31.616Z,11.77
2023-04-29T11:15:31.573Z,11.86
2023-04-29T11:16:31.618Z,11.93
2023-04-29T11:17:31.582Z,11.93
2023-04-29T11:18:31.539Z,11.97
2023-04-29T11:19:31.540Z,12.02
2023-04-29T11:20:31.525Z,12.05
2023-04-29T11:21:31.506Z,12.11
2023-04-29T11:22:31.512Z,12.09
2023-04-29T11:23:31.496Z,12.06
2023-04-29T11:24:31.492Z,12.05
2023-04-29T11:25:31.496Z,12.11
2023-04-29T11:26:31.467Z,12.19
2023-04-29T11:27:31.450Z,12.23
2023-04-29T11:28:31.456Z,12.23
2023-04-29T11:29:31.433Z,12.29
2023-04-29T11:30:31.416Z,12.33
2023-04-29T11:31:31.435Z,12.38
2023-04-29T11:32:31.489Z,12.45
2023-04-29T11:33:31.450Z,12.48
2023-04-29T11:34:31.395Z,12.54
2023-04-29T11:35:31.367Z,12.60
2023-04-29T11:36:31.353Z,12.71
2023-04-29T11:37:31.329Z,12.71
2023-04-29T11:38:31.334Z,12.81
2023-04-29T11:39:31.320Z,12.87
2023-04-29T11:40:31.300Z,13.04
2023-04-29T11:41:31.289Z,13.11
2023-04-29T11:42:31.287Z,13.03
2023-04-29T11:43:31.262Z,13.04
2023-04-29T11:44:31.253Z,13.11
2023-04-29T11:45:31.266Z,13.12
2023-04-29T11:46:31.311Z,13.20
2023-04-29T11:47:31.363Z,13.30
2023-04-29T11:48:31.207Z,13.40
2023-04-29T11:49:31.204Z,13.46
2023-04-29T11:50:31.222Z,13.56
2023-04-29T11:51:31.172Z,13.61
2023-04-29T11:52:31.173Z,13.59
2023-04-29T11:53:31.183Z,13.55
2023-04-29T11:54:31.143Z,13.55
2023-04-29T11:55:31.174Z,13.61
2023-04-29T11:56:31.140Z,13.67
2023-04-29T11:57:31.123Z,13.58
2023-04-29T11:58:31.110Z,13.59
2023-04-29T11:59:31.121Z,13.59
2023-04-29T12:00:31.086Z,13.62
2023-04-29T12:01:31.088Z,13.63
2023-04-29T12:02:31.273Z,13.69
2023-04-29T12:03:31.228Z,13.74
2023-04-29T12:04:31.488Z,13.81
2023-04-29T12:05:31.233Z,13.83
2023-04-29T12:06:31.084Z,13.88
2023-04-29T12:07:31.103Z,13.88
2023-04-29T12:08:31.031Z,13.91
2023-04-29T12:09:31.043Z,13.74
2023-04-29T12:10:30.968Z,13.65
2023-04-29T12:11:30.986Z,13.65
2023-04-29T12:12:30.929Z,13.63
2023-04-29T12:13:30.954Z,13.63
2023-04-29T12:14:30.912Z,13.67
2023-04-29T12:15:30.898Z,13.69
2023-04-29T12:16:30.970Z,13.74
2023-04-29T12:17:30.898Z,13.70
2023-04-29T12:18:30.871Z,13.63
2023-04-29T12:19:30.881Z,13.49
2023-04-29T12:20:30.858Z,13.44
2023-04-29T12:21:30.852Z,13.41
2023-04-29T12:22:30.827Z,13.44
2023-04-29T12:23:30.817Z,13.47
2023-04-29T12:24:30.810Z,13.46
2023-04-29T12:25:30.796Z,13.47
2023-04-29T12:26:30.814Z,13.38
2023-04-29T12:27:30.774Z,13.37
2023-04-29T12:28:30.779Z,13.37
2023-04-29T12:29:30.753Z,13.30
2023-04-29T12:30:30.746Z,13.27
2023-04-29T12:31:30.804Z,13.24
2023-04-29T12:32:30.730Z,13.24
2023-04-29T12:33:30.704Z,13.24
2023-04-29T12:34:30.692Z,13.25
2023-04-29T12:35:30.683Z,13.24
2023-04-29T12:36:30.692Z,13.17
2023-04-29T12:37:30.680Z,13.09
2023-04-29T12:38:30.651Z,13.11
2023-04-29T12:39:30.644Z,13.07
2023-04-29T12:40:30.662Z,13.02
2023-04-29T12:41:30.634Z,13.07
2023-04-29T12:42:30.634Z,13.09
2023-04-29T12:43:30.633Z,13.02
2023-04-29T12:44:30.596Z,13.03
2023-04-29T12:45:30.593Z,13.12
2023-04-29T12:46:30.636Z,13.18
2023-04-29T12:47:30.595Z,13.24
2023-04-29T12:48:32.987Z,13.41
2023-04-29T12:49:30.520Z,13.52
2023-04-29T12:50:30.547Z,13.54
2023-04-29T12:51:30.526Z,13.62
2023-04-29T12:52:30.496Z,13.73
2023-04-29T12:53:30.503Z,13.80
2023-04-29T12:54:30.475Z,13.91
2023-04-29T12:55:30.471Z,13.99
2023-04-29T12:56:30.474Z,14.12
2023-04-29T12:57:30.429Z,14.21
2023-04-29T12:58:30.542Z,14.42
2023-04-29T12:59:30.453Z,14.50
2023-04-29T13:00:30.434Z,14.60
2023-04-29T13:01:30.453Z,14.67
2023-04-29T13:02:30.815Z,14.72
2023-04-29T13:03:30.666Z,14.75
2023-04-29T13:04:30.488Z,14.67
2023-04-29T13:05:30.333Z,14.67
2023-04-29T13:06:30.347Z,14.68
2023-04-29T13:07:30.325Z,14.67
2023-04-29T13:08:30.327Z,14.67
2023-04-29T13:09:30.295Z,14.84
2023-04-29T13:10:30.309Z,15.01
2023-04-29T13:11:34.018Z,15.08
2023-04-29T13:12:30.287Z,15.03
2023-04-29T13:13:30.256Z,14.90
2023-04-29T13:14:30.263Z,14.74
2023-04-29T13:15:30.245Z,14.67
2023-04-29T13:16:30.274Z,14.68
2023-04-29T13:17:30.233Z,14.56
2023-04-29T13:18:31.349Z,14.50
2023-04-29T13:19:44.027Z,14.61
2023-04-29T13:20:30.202Z,14.68
2023-04-29T13:21:30.176Z,14.81
2023-04-29T13:22:30.165Z,14.87
2023-04-29T13:23:30.147Z,14.93
2023-04-29T13:24:30.136Z,14.99
2023-04-29T13:25:30.124Z,14.93
2023-04-29T13:26:30.145Z,15.01
2023-04-29T13:27:30.101Z,15.02
2023-04-29T13:28:30.089Z,15.09
2023-04-29T13:29:30.365Z,15.05
2023-04-29T13:30:30.071Z,14.94
2023-04-29T13:31:30.139Z,14.98
2023-04-29T13:32:43.292Z,14.99
2023-04-29T13:33:30.069Z,15.03
2023-04-29T13:34:30.034Z,15.05
2023-04-29T13:35:30.017Z,15.08
2023-04-29T13:36:30.033Z,15.03
2023-04-29T13:37:29.979Z,14.93
2023-04-29T13:38:30.000Z,14.88
2023-04-29T13:39:29.982Z,14.84
2023-04-29T13:40:30.801Z,14.84
2023-04-29T13:41:34.485Z,14.80
2023-04-29T13:42:29.936Z,14.86
2023-04-29T13:43:37.617Z,14.74
2023-04-29T13:44:36.131Z,14.81
2023-04-29T13:45:30.576Z,14.88
2023-04-29T13:46:31.422Z,14.99
2023-04-29T13:47:31.564Z,15.03
2023-04-29T13:49:01.650Z,15.09
2023-04-29T13:49:58.595Z,15.19
2023-04-29T13:51:56.289Z,15.42
2023-04-29T13:53:10.747Z,15.48
2023-04-29T13:57:14.884Z,16.25
2023-04-29T13:59:42.712Z,15.99
2023-04-29T14:02:30.056Z,15.75
2023-04-29T14:03:31.434Z,15.82
2023-04-29T14:04:29.896Z,15.84
2023-04-29T14:05:29.766Z,15.72
2023-04-29T14:06:29.680Z,15.57
2023-04-29T14:07:29.666Z,15.36
2023-04-29T14:08:29.655Z,15.28
2023-04-29T14:09:29.643Z,15.27
2023-04-29T14:10:29.638Z,15.23
2023-04-29T14:11:29.614Z,15.19
2023-04-29T14:12:29.652Z,15.15
2023-04-29T14:13:29.704Z,15.12
2023-04-29T14:14:29.616Z,15.05
2023-04-29T14:15:29.571Z,15.08
2023-04-29T14:16:29.669Z,15.05
2023-04-29T14:17:29.593Z,15.08
2023-04-29T14:18:29.568Z,15.03
2023-04-29T14:19:29.537Z,14.94
2023-04-29T14:20:29.532Z,14.87
2023-04-29T14:21:29.509Z,14.86
2023-04-29T14:22:29.514Z,14.80
2023-04-29T14:23:29.514Z,14.74
2023-04-29T14:24:29.480Z,14.72
2023-04-29T14:25:30.486Z,14.69
2023-04-29T14:26:29.589Z,14.69
2023-04-29T14:27:29.448Z,14.67
2023-04-29T14:28:29.445Z,14.65
2023-04-29T14:29:29.413Z,14.65
2023-04-29T14:30:29.460Z,14.69
2023-04-29T14:31:29.594Z,14.80
2023-04-29T14:32:29.414Z,14.90
2023-04-29T14:33:29.406Z,14.88
2023-04-29T14:34:29.377Z,15.03
2023-04-29T14:35:29.344Z,15.20
2023-04-29T14:36:29.375Z,15.19
2023-04-29T14:37:29.336Z,15.21
2023-04-29T14:38:29.324Z,15.26
2023-04-29T14:39:29.317Z,15.36
2023-04-29T14:40:29.316Z,15.56
2023-04-29T14:41:29.287Z,15.76
2023-04-29T14:42:29.282Z,15.89
2023-04-29T14:43:29.287Z,16.22
2023-04-29T14:44:29.256Z,16.38
2023-04-29T14:45:29.248Z,16.59
2023-04-29T14:46:29.268Z,16.48
2023-04-29T14:47:29.277Z,16.45
2023-04-29T14:48:29.271Z,16.37
2023-04-29T14:49:31.517Z,16.99
2023-04-29T14:50:29.177Z,17.94
2023-04-29T14:51:29.168Z,18.37
2023-04-29T14:52:29.175Z,18.36
2023-04-29T14:53:29.171Z,18.68
2023-04-29T14:54:29.166Z,18.70
2023-04-29T14:55:30.173Z,18.79
2023-04-29T14:56:29.129Z,19.31
2023-04-29T14:57:29.098Z,19.58
2023-04-29T14:58:29.113Z,20.02
2023-04-29T14:59:29.082Z,20.31
2023-04-29T15:00:29.073Z,20.25
2023-04-29T15:01:31.908Z,20.18
2023-04-29T15:02:29.102Z,19.95
2023-04-29T15:03:29.214Z,19.69
2023-04-29T15:04:29.095Z,19.06
2023-04-29T15:05:29.022Z,18.37
2023-04-29T15:06:29.058Z,17.92
2023-04-29T15:07:31.156Z,17.97
2023-04-29T15:08:28.995Z,17.40
2023-04-29T15:09:29.008Z,17.50
2023-04-29T15:10:28.971Z,17.35
2023-04-29T15:11:28.956Z,17.14
2023-04-29T15:12:28.957Z,17.07
2023-04-29T15:13:30.066Z,17.06
2023-04-29T15:14:28.916Z,16.92
2023-04-29T15:15:28.929Z,16.88
2023-04-29T15:16:29.009Z,16.71
2023-04-29T15:17:28.909Z,16.59
2023-04-29T15:18:28.877Z,16.42
2023-04-29T15:19:28.870Z,16.16
2023-04-29T15:20:28.894Z,16.04
2023-04-29T15:21:28.842Z,15.92
2023-04-29T15:22:28.852Z,15.79
2023-04-29T15:23:28.810Z,15.68
2023-04-29T15:24:28.817Z,15.66
2023-04-29T15:25:28.797Z,15.64
2023-04-29T15:26:28.806Z,15.64
2023-04-29T15:27:28.780Z,15.64
2023-04-29T15:28:28.768Z,15.60
2023-04-29T15:29:29.086Z,15.59
2023-04-29T15:30:28.756Z,15.56
2023-04-29T15:31:30.650Z,15.52
2023-04-29T15:32:28.778Z,15.48
2023-04-29T15:33:28.697Z,15.43
2023-04-29T15:34:28.723Z,15.35
2023-04-29T15:35:28.685Z,15.33
2023-04-29T15:36:28.693Z,15.31
2023-04-29T15:37:28.709Z,15.33
2023-04-29T15:38:28.649Z,15.33
2023-04-29T15:39:28.634Z,15.33
2023-04-29T15:40:28.691Z,15.26
2023-04-29T15:41:28.619Z,15.19
2023-04-29T15:42:28.632Z,15.08
2023-04-29T15:43:28.597Z,14.99
2023-04-29T15:44:28.585Z,14.91
2023-04-29T15:45:28.644Z,14.90
2023-04-29T15:46:28.569Z,14.93
2023-04-29T15:47:28.731Z,14.95
2023-04-29T15:48:28.566Z,15.05
2023-04-29T15:49:28.549Z,15.08
2023-04-29T15:50:28.535Z,15.11
2023-04-29T15:51:28.533Z,15.12
2023-04-29T15:52:28.520Z,15.11
2023-04-29T15:53:28.479Z,15.01
2023-04-29T15:54:28.484Z,15.03
2023-04-29T15:55:28.491Z,15.03
2023-04-29T15:56:28.477Z,14.99
2023-04-29T15:57:28.436Z,15.05
2023-04-29T15:58:28.447Z,15.02
2023-04-29T15:59:28.445Z,15.03
2023-04-29T16:00:28.422Z,15.01
2023-04-29T16:01:28.488Z,15.01
2023-04-29T16:02:28.410Z,14.99
2023-04-29T16:03:28.419Z,15.01
2023-04-29T16:04:28.363Z,14.95
2023-04-29T16:05:28.354Z,14.95
2023-04-29T16:06:28.366Z,14.98
2023-04-29T16:07:28.333Z,14.90
2023-04-29T16:08:28.315Z,14.88
2023-04-29T16:09:28.317Z,14.91
2023-04-29T16:10:28.404Z,14.91
2023-04-29T16:11:28.292Z,14.87
2023-04-29T16:12:28.291Z,14.88
2023-04-29T16:13:28.276Z,14.88
2023-04-29T16:14:28.266Z,14.84
2023-04-29T16:15:28.238Z,14.86
2023-04-29T16:16:28.298Z,14.84
2023-04-29T16:17:28.235Z,14.83
2023-04-29T16:18:28.214Z,14.75
2023-04-29T16:19:28.246Z,14.69
2023-04-29T16:20:28.203Z,14.72
2023-04-29T16:21:28.176Z,14.68
2023-04-29T16:22:28.624Z,14.71
2023-04-29T16:23:28.169Z,14.71
2023-04-29T16:24:28.145Z,14.68
2023-04-29T16:25:28.119Z,14.69
2023-04-29T16:26:28.117Z,14.72
2023-04-29T16:27:28.121Z,14.69
2023-04-29T16:28:28.099Z,14.69
2023-04-29T16:29:28.078Z,14.65
2023-04-29T16:30:28.092Z,14.65
2023-04-29T16:31:28.110Z,14.62
2023-04-29T16:32:28.058Z,14.61
2023-04-29T16:33:28.070Z,14.64
2023-04-29T16:34:28.110Z,14.62
2023-04-29T16:35:28.053Z,14.56
2023-04-29T16:36:28.024Z,14.56
2023-04-29T16:37:28.005Z,14.56
2023-04-29T16:38:28.013Z,14.60
2023-04-29T16:39:27.978Z,14.54
2023-04-29T16:40:27.965Z,14.60
2023-04-29T16:41:27.948Z,14.57
2023-04-29T16:42:27.952Z,14.64
2023-04-29T16:43:27.965Z,14.67
2023-04-29T16:44:27.924Z,14.67
2023-04-29T16:45:27.930Z,14.68
2023-04-29T16:46:27.957Z,14.68
2023-04-29T16:47:27.914Z,14.68
2023-04-29T16:48:27.909Z,14.69
2023-04-29T16:49:27.878Z,14.74
2023-04-29T16:50:27.865Z,14.75
2023-04-29T16:51:27.846Z,14.88
2023-04-29T16:52:27.834Z,15.30
2023-04-29T16:53:27.830Z,15.54
2023-04-29T16:54:27.828Z,15.67
2023-04-29T16:55:27.805Z,15.85
2023-04-29T16:56:27.799Z,16.26
2023-04-29T16:57:27.784Z,16.73
2023-04-29T16:58:27.760Z,17.20
2023-04-29T16:59:27.769Z,17.59
2023-04-29T17:00:27.781Z,17.92